Time;durP1;ratioP1;P1;durP2;ratioP2;P2;SDS_P1;SDS_P2;PMS_P1;PMS_P2;Temp;Humidity;BMP_temperature;BMP_pressure;BME280_temperature;BME280_humidity;BME280_pressure;Samples;Min_cycle;Max_cycle;Signal;HPM_P1;HPM_P2
2021/09/22 00:03:25;;;;;;;0.10;0.10;;;;;;;;;;10398757;28;20095;-64
2021/09/22 00:08:28;;;;;;;0.10;0.10;;;;;;;;;;10402869;28;20389;-64
2021/09/22 00:13:32;;;;;;;0.10;0.10;;;;;;;;;;10400662;28;20422;-64
2021/09/22 00:18:35;;;;;;;0.10;0.10;;;;;;;;;;10402323;28;20044;-64
2021/09/22 00:23:38;;;;;;;0.20;0.17;;;;;;;;;;10398788;28;20092;-64
2021/09/22 00:28:42;;;;;;;0.10;0.10;;;;;;;;;;10397081;28;20376;-64
2021/09/22 00:33:46;;;;;;;0.10;0.10;;;;;;;;;;10397991;28;20851;-64
2021/09/22 00:38:49;;;;;;;0.10;0.10;;;;;;;;;;10397800;28;20038;-64
2021/09/22 00:43:54;;;;;;;0.10;0.10;;;;;;;;;;10396544;28;20041;-65
2021/09/22 00:48:57;;;;;;;0.10;0.10;;;;;;;;;;10420696;28;20044;-65
2021/09/22 00:54:05;;;;;;;0.10;0.10;;;;;;;;;;10401202;28;20045;-64
2021/09/22 00:59:09;;;;;;;0.10;0.10;;;;;;;;;;10398124;28;20057;-63
2021/09/22 01:04:12;;;;;;;0.10;0.10;;;;;;;;;;10397879;28;20045;-64
2021/09/22 01:09:15;;;;;;;0.20;0.10;;;;;;;;;;10395411;28;20128;-65
2021/09/22 01:14:22;;;;;;;0.10;0.10;;;;;;;;;;10395867;28;20413;-64
2021/09/22 01:19:26;;;;;;;0.35;0.10;;;;;;;;;;10411621;28;20120;-64
2021/09/22 01:24:31;;;;;;;0.20;0.20;;;;;;;;;;10404250;28;20073;-64
2021/09/22 01:29:35;;;;;;;0.15;0.15;;;;;;;;;;10398263;28;20059;-64
2021/09/22 01:34:38;;;;;;;0.10;0.10;;;;;;;;;;10394603;28;20107;-64
2021/09/22 01:39:46;;;;;;;0.10;0.10;;;;;;;;;;10395244;28;20862;-64
2021/09/22 01:44:52;;;;;;;0.10;0.10;;;;;;;;;;10397375;28;20053;-64
2021/09/22 01:50:08;;;;;;;0.10;0.10;;;;;;;;;;10405622;28;20099;-64
2021/09/22 01:55:15;;;;;;;0.10;0.10;;;;;;;;;;10393143;28;20053;-64
2021/09/22 02:00:20;;;;;;;0.20;0.20;;;;;;;;;;10395214;28;20579;-63
2021/09/22 02:05:24;;;;;;;0.15;0.15;;;;;;;;;;10395866;28;20130;-64
2021/09/22 02:10:48;;;;;;;0.20;0.20;;;;;;;;;;10394712;28;20052;-64
2021/09/22 02:15:54;;;;;;;0.20;0.20;;;;;;;;;;10392112;28;20083;-63
2021/09/22 02:21:17;;;;;;;0.20;0.20;;;;;;;;;;10378989;28;20054;-64
2021/09/22 02:26:22;;;;;;;0.20;0.20;;;;;;;;;;10416941;28;20458;-63
2021/09/22 02:31:25;;;;;;;0.20;0.20;;;;;;;;;;10400246;28;20042;-64
2021/09/22 02:36:34;;;;;;;0.20;0.20;;;;;;;;;;10396407;28;20542;-64
2021/09/22 02:41:42;;;;;;;0.45;0.35;;;;;;;;;;10395438;28;20140;-63
2021/09/22 02:46:47;;;;;;;0.30;0.30;;;;;;;;;;10391794;28;20087;-64
2021/09/22 02:51:51;;;;;;;0.28;0.28;;;;;;;;;;10391735;28;20091;-64
2021/09/22 02:56:55;;;;;;;0.25;0.25;;;;;;;;;;10393819;28;20089;-64
2021/09/22 03:01:58;;;;;;;0.10;0.10;;;;;;;;;;10390631;28;20053;-64
2021/09/22 03:07:02;;;;;;;0.40;0.40;;;;;;;;;;10393100;28;20048;-63
2021/09/22 03:12:07;;;;;;;0.40;0.30;;;;;;;;;;10392593;28;20057;-63
2021/09/22 03:17:10;;;;;;;0.20;0.20;;;;;;;;;;10394136;28;20060;-65
2021/09/22 03:22:13;;;;;;;0.30;0.30;;;;;;;;;;10396336;28;20053;-64
2021/09/22 03:27:38;;;;;;;0.30;0.30;;;;;;;;;;10389346;28;20053;-64
2021/09/22 03:32:43;;;;;;;0.38;0.38;;;;;;;;;;10394337;28;20439;-64
2021/09/22 03:37:46;;;;;;;0.20;0.20;;;;;;;;;;10393076;28;20073;-64
2021/09/22 03:42:51;;;;;;;0.28;0.28;;;;;;;;;;10392847;28;20136;-64
2021/09/22 03:47:53;;;;;;;0.20;0.20;;;;;;;;;;10393272;28;20045;-64
2021/09/22 03:52:56;;;;;;;0.20;0.20;;;;;;;;;;10390850;28;20041;-64
2021/09/22 03:58:01;;;;;;;0.30;0.30;;;;;;;;;;10396776;28;20412;-64
2021/09/22 04:03:04;;;;;;;0.30;0.30;;;;;;;;;;10389292;28;20415;-64
2021/09/22 04:08:08;;;;;;;0.30;0.30;;;;;;;;;;10390718;28;20076;-64
2021/09/22 04:13:17;;;;;;;0.30;0.30;;;;;;;;;;10391485;28;20092;-64
2021/09/22 04:18:25;;;;;;;0.50;0.30;;;;;;;;;;10392088;28;20045;-63
2021/09/22 04:23:29;;;;;;;0.20;0.20;;;;;;;;;;10387988;28;20539;-64
2021/09/22 04:28:33;;;;;;;0.40;0.40;;;;;;;;;;10390014;28;20073;-64
2021/09/22 04:33:55;;;;;;;0.30;0.30;;;;;;;;;;10389731;28;21011;-63
2021/09/22 04:39:16;;;;;;;0.38;0.38;;;;;;;;;;10397212;28;20045;-65
2021/09/22 04:44:49;;;;;;;0.30;0.30;;;;;;;;;;10364632;28;20072;-65
2021/09/22 04:50:11;;;;;;;0.30;0.30;;;;;;;;;;10401387;28;20054;-64
2021/09/22 04:55:32;;;;;;;0.28;0.28;;;;;;;;;;10401299;28;20131;-64
2021/09/22 05:00:56;;;;;;;0.40;0.40;;;;;;;;;;10398064;28;20038;-64
2021/09/22 05:06:18;;;;;;;0.80;0.40;;;;;;;;;;10398831;28;20176;-64
2021/09/22 05:11:40;;;;;;;0.43;0.40;;;;;;;;;;10407344;28;20091;-64
2021/09/22 05:17:03;;;;;;;0.30;0.30;;;;;;;;;;10419302;28;20056;-64
2021/09/22 05:22:24;;;;;;;0.30;0.30;;;;;;;;;;10419399;28;20050;-64
2021/09/22 05:27:46;;;;;;;0.37;0.37;;;;;;;;;;10395413;28;20053;-64
2021/09/22 05:33:10;;;;;;;0.50;0.50;;;;;;;;;;10401635;28;20061;-64
2021/09/22 05:38:39;;;;;;;;;;;;;;;;;;10398759;28;20037;-65
2021/09/22 05:44:01;;;;;;;0.50;0.50;;;;;;;;;;10400461;28;20016;-65
2021/09/22 05:49:23;;;;;;;0.40;0.40;;;;;;;;;;10403387;28;20091;-65
2021/09/22 05:54:55;;;;;;;0.45;0.45;;;;;;;;;;10343498;28;20123;-68
2021/09/22 06:00:17;;;;;;;0.45;0.45;;;;;;;;;;10398515;28;20049;-65
2021/09/22 06:05:40;;;;;;;0.43;0.43;;;;;;;;;;10395576;28;20053;-68
2021/09/22 06:11:03;;;;;;;0.52;0.40;;;;;;;;;;10398534;28;20054;-67
2021/09/22 06:16:25;;;;;;;0.50;0.50;;;;;;;;;;10398443;28;20061;-65
2021/09/22 06:21:34;;;;;;;0.70;0.40;;;;;;;;;;10394974;28;20053;-66
2021/09/22 06:26:37;;;;;;;0.40;0.40;;;;;;;;;;10392681;28;20045;-66
2021/09/22 06:31:40;;;;;;;0.88;0.50;;;;;;;;;;10394097;28;20046;-67
2021/09/22 06:37:06;;;;;;;0.40;0.40;;;;;;;;;;10394997;28;20064;-66
2021/09/22 06:42:19;;;;;;;0.82;0.50;;;;;;;;;;10394899;28;20514;-66
2021/09/22 06:47:23;;;;;;;0.50;0.50;;;;;;;;;;10392796;28;20048;-65
2021/09/22 06:52:29;;;;;;;0.52;0.52;;;;;;;;;;10392316;28;20416;-64
2021/09/22 06:57:32;;;;;;;0.50;0.50;;;;;;;;;;10392979;28;20052;-64
2021/09/22 07:02:35;;;;;;;0.35;0.35;;;;;;;;;;10394398;28;20056;-64
2021/09/22 07:07:40;;;;;;;0.50;0.50;;;;;;;;;;10389467;28;20053;-64
2021/09/22 07:12:42;;;;;;;0.45;0.40;;;;;;;;;;10393887;28;20057;-64
2021/09/22 07:17:45;;;;;;;0.50;0.50;;;;;;;;;;10393339;28;20049;-65
2021/09/22 07:22:49;;;;;;;0.32;0.32;;;;;;;;;;10392470;28;20060;-64
2021/09/22 07:27:52;;;;;;;0.45;0.40;;;;;;;;;;10392785;28;20472;-65
2021/09/22 07:32:59;;;;;;;0.40;0.40;;;;;;;;;;10393104;28;20053;-65
2021/09/22 07:38:03;;;;;;;0.55;0.50;;;;;;;;;;10393426;28;20399;-64
2021/09/22 07:43:06;;;;;;;0.40;0.40;;;;;;;;;;10398409;28;20406;-64
2021/09/22 07:48:09;;;;;;;0.40;0.40;;;;;;;;;;10403530;28;20506;-71
2021/09/22 07:53:13;;;;;;;0.38;0.38;;;;;;;;;;10403767;28;20089;-65
2021/09/22 07:58:18;;;;;;;0.50;0.40;;;;;;;;;;10393622;28;20398;-66
2021/09/22 08:03:20;;;;;;;0.50;0.47;;;;;;;;;;10401655;28;20148;-66
2021/09/22 08:08:25;;;;;;;0.40;0.40;;;;;;;;;;10394400;28;20045;-65
2021/09/22 08:13:28;;;;;;;0.30;0.30;;;;;;;;;;10396973;28;20494;-64
2021/09/22 08:18:31;;;;;;;0.30;0.30;;;;;;;;;;10398576;28;20045;-66
2021/09/22 08:23:35;;;;;;;0.47;0.40;;;;;;;;;;10398256;28;20480;-66
2021/09/22 08:28:38;;;;;;;0.95;0.50;;;;;;;;;;10399599;28;20049;-65
2021/09/22 08:33:40;;;;;;;0.60;0.40;;;;;;;;;;10409796;28;20061;-65
2021/09/22 08:38:44;;;;;;;0.52;0.40;;;;;;;;;;10412587;28;20099;-65
2021/09/22 08:43:47;;;;;;;0.40;0.32;;;;;;;;;;10396891;28;20045;-65
2021/09/22 08:48:50;;;;;;;0.20;0.20;;;;;;;;;;10398884;28;20373;-66
2021/09/22 08:53:54;;;;;;;0.50;0.40;;;;;;;;;;10404581;28;20067;-67
2021/09/22 08:58:57;;;;;;;0.40;0.38;;;;;;;;;;10399736;28;20037;-66
2021/09/22 09:04:12;;;;;;;0.47;0.30;;;;;;;;;;10394678;28;20049;-66
2021/09/22 09:09:17;;;;;;;0.52;0.38;;;;;;;;;;10395699;28;20500;-66
2021/09/22 09:14:20;;;;;;;0.55;0.30;;;;;;;;;;10398212;28;20190;-66
2021/09/22 09:19:23;;;;;;;0.50;0.40;;;;;;;;;;10397330;28;20053;-63
2021/09/22 09:24:31;;;;;;;0.57;0.30;;;;;;;;;;10394900;28;20184;-65
2021/09/22 09:29:34;;;;;;;0.60;0.40;;;;;;;;;;10397564;28;20432;-63
2021/09/22 09:34:36;;;;;;;0.57;0.40;;;;;;;;;;10395713;28;20047;-63
2021/09/22 09:39:41;;;;;;;0.40;0.30;;;;;;;;;;10397313;28;20049;-63
2021/09/22 09:44:48;;;;;;;0.63;0.30;;;;;;;;;;10395432;28;20331;-65
2021/09/22 09:49:50;;;;;;;0.30;0.30;;;;;;;;;;10393244;28;20503;-65
2021/09/22 09:54:54;;;;;;;0.52;0.30;;;;;;;;;;10395169;28;20049;-65
2021/09/22 09:59:58;;;;;;;0.63;0.35;;;;;;;;;;10396249;28;20041;-65
2021/09/22 10:05:01;;;;;;;0.82;0.40;;;;;;;;;;10399859;28;20387;-65
2021/09/22 10:10:07;;;;;;;0.30;0.30;;;;;;;;;;10405243;28;20051;-65
2021/09/22 10:15:11;;;;;;;0.50;0.30;;;;;;;;;;10416760;28;20142;-64
2021/09/22 10:20:16;;;;;;;0.30;0.30;;;;;;;;;;10425368;28;20064;-66
2021/09/22 10:25:23;;;;;;;0.88;0.40;;;;;;;;;;10389630;28;20413;-65
2021/09/22 10:30:33;;;;;;;0.52;0.30;;;;;;;;;;10398128;28;20049;-65
2021/09/22 10:35:39;;;;;;;0.35;0.25;;;;;;;;;;10392969;28;20221;-65
2021/09/22 10:40:49;;;;;;;0.52;0.32;;;;;;;;;;10393725;28;20381;-65
2021/09/22 10:46:10;;;;;;;0.60;0.30;;;;;;;;;;10390970;28;20057;-65
2021/09/22 10:51:13;;;;;;;0.40;0.30;;;;;;;;;;10392849;28;20373;-65
2021/09/22 10:56:21;;;;;;;0.38;0.30;;;;;;;;;;10391262;28;20079;-62
2021/09/22 11:01:51;;;;;;;0.50;0.30;;;;;;;;;;10393224;28;20050;-65
2021/09/22 11:06:58;;;;;;;0.30;0.20;;;;;;;;;;10350375;28;20061;-68
2021/09/22 11:12:13;;;;;;;0.95;0.30;;;;;;;;;;10393076;28;20492;-67
2021/09/22 11:17:17;;;;;;;0.50;0.30;;;;;;;;;;10397020;28;20047;-66
2021/09/22 11:22:22;;;;;;;0.50;0.30;;;;;;;;;;10392044;28;20060;-67
2021/09/22 11:27:27;;;;;;;0.22;0.22;;;;;;;;;;10389489;28;20060;-67
2021/09/22 11:32:32;;;;;;;0.85;0.40;;;;;;;;;;10393338;28;20412;-68
2021/09/22 11:37:37;;;;;;;0.22;0.20;;;;;;;;;;10392569;28;20061;-69
2021/09/22 11:42:42;;;;;;;0.75;0.22;;;;;;;;;;10390820;28;20491;-67
2021/09/22 11:47:45;;;;;;;0.15;0.10;;;;;;;;;;10394014;28;20045;-66
2021/09/22 11:52:48;;;;;;;0.32;0.20;;;;;;;;;;10388590;28;20037;-63
2021/09/22 11:57:53;;;;;;;0.30;0.30;;;;;;;;;;10390812;28;20064;-65
2021/09/22 12:02:56;;;;;;;0.77;0.50;;;;;;;;;;10386760;28;20484;-65
2021/09/22 12:08:00;;;;;;;0.30;0.20;;;;;;;;;;10393708;28;20049;-65
2021/09/22 12:13:05;;;;;;;0.80;0.25;;;;;;;;;;10389320;28;20064;-66
2021/09/22 12:18:08;;;;;;;0.60;0.30;;;;;;;;;;10394983;28;20563;-65
2021/09/22 12:23:11;;;;;;;0.30;0.30;;;;;;;;;;10390174;28;20048;-65
2021/09/22 12:28:18;;;;;;;0.60;0.40;;;;;;;;;;10389952;28;20060;-65
2021/09/22 12:33:22;;;;;;;0.60;0.30;;;;;;;;;;10388656;28;20144;-64
2021/09/22 12:38:25;;;;;;;0.20;0.20;;;;;;;;;;10391797;28;20055;-69
2021/09/22 12:43:30;;;;;;;0.70;0.30;;;;;;;;;;10412703;28;20041;-66
2021/09/22 12:48:33;;;;;;;0.45;0.20;;;;;;;;;;10409290;28;20420;-65
2021/09/22 12:53:36;;;;;;;0.55;0.20;;;;;;;;;;10390877;28;20043;-68
2021/09/22 12:58:55;;;;;;;0.38;0.20;;;;;;;;;;10394114;28;20071;-66
2021/09/22 13:03:58;;;;;;;0.38;0.20;;;;;;;;;;10398627;28;20049;-67
2021/09/22 13:09:03;;;;;;;0.80;0.30;;;;;;;;;;10394708;28;20554;-67
2021/09/22 13:14:08;;;;;;;1.30;0.40;;;;;;;;;;10396201;28;20048;-67
2021/09/22 13:19:12;;;;;;;0.32;0.30;;;;;;;;;;10396734;28;20041;-67
2021/09/22 13:24:16;;;;;;;0.63;0.30;;;;;;;;;;10394172;28;20068;-67
2021/09/22 13:29:20;;;;;;;0.20;0.20;;;;;;;;;;10401752;28;20525;-67
2021/09/22 13:34:27;;;;;;;0.40;0.20;;;;;;;;;;10396152;28;20156;-67
2021/09/22 13:39:30;;;;;;;0.40;0.20;;;;;;;;;;10395061;28;20794;-66
2021/09/22 13:44:34;;;;;;;0.40;0.30;;;;;;;;;;10393795;28;20041;-65
2021/09/22 13:49:38;;;;;;;0.40;0.30;;;;;;;;;;10395743;28;20060;-67
2021/09/22 13:54:43;;;;;;;0.57;0.28;;;;;;;;;;10395325;28;20064;-67
2021/09/22 13:59:47;;;;;;;0.30;0.22;;;;;;;;;;10392250;28;20045;-65
2021/09/22 14:04:50;;;;;;;0.35;0.20;;;;;;;;;;10395019;28;20042;-68
2021/09/22 14:09:53;;;;;;;0.32;0.20;;;;;;;;;;10395990;28;20131;-75
2021/09/22 14:14:59;;;;;;;1.98;0.40;;;;;;;;;;10393558;28;20050;-68
2021/09/22 14:20:02;;;;;;;0.93;0.30;;;;;;;;;;10392944;28;20954;-74
2021/09/22 14:25:06;;;;;;;0.82;0.30;;;;;;;;;;10395805;28;20045;-79
2021/09/22 14:30:11;;;;;;;0.20;0.13;;;;;;;;;;10394668;28;20048;-67
2021/09/22 14:35:14;;;;;;;0.52;0.20;;;;;;;;;;10393683;28;20102;-74
2021/09/22 14:40:18;;;;;;;0.55;0.20;;;;;;;;;;10394395;28;20044;-67
2021/09/22 14:45:23;;;;;;;0.52;0.20;;;;;;;;;;10384697;28;20080;-68
2021/09/22 14:50:27;;;;;;;0.32;0.20;;;;;;;;;;10395930;28;21110;-67
2021/09/22 14:55:30;;;;;;;0.35;0.13;;;;;;;;;;10392517;28;20157;-67
2021/09/22 15:00:35;;;;;;;0.50;0.10;;;;;;;;;;10398752;28;20037;-68
2021/09/22 15:05:39;;;;;;;0.22;0.10;;;;;;;;;;10392955;28;20396;-65
2021/09/22 15:10:42;;;;;;;0.93;0.30;;;;;;;;;;10387256;28;20728;-66
2021/09/22 15:15:46;;;;;;;0.20;0.20;;;;;;;;;;10388138;28;20136;-67
2021/09/22 15:20:49;;;;;;;0.85;0.30;;;;;;;;;;10389283;28;20057;-68
2021/09/22 15:25:53;;;;;;;1.30;0.40;;;;;;;;;;10385697;28;20042;-68
2021/09/22 15:30:57;;;;;;;0.60;0.20;;;;;;;;;;10388524;28;20126;-68
2021/09/22 15:36:00;;;;;;;0.20;0.10;;;;;;;;;;10388624;28;20049;-68
2021/09/22 15:41:04;;;;;;;0.30;0.20;;;;;;;;;;10400375;28;20037;-67
2021/09/22 15:46:08;;;;;;;0.35;0.20;;;;;;;;;;10389953;28;20863;-67
2021/09/22 15:51:13;;;;;;;0.55;0.25;;;;;;;;;;10392730;28;20063;-68
2021/09/22 15:56:17;;;;;;;0.35;0.20;;;;;;;;;;10388643;28;20986;-68
2021/09/22 16:01:21;;;;;;;0.20;0.10;;;;;;;;;;10388093;28;20124;-67
2021/09/22 16:06:25;;;;;;;0.40;0.20;;;;;;;;;;10387287;28;20710;-67
2021/09/22 16:11:28;;;;;;;0.13;0.10;;;;;;;;;;10388191;28;20180;-67
2021/09/22 16:16:32;;;;;;;0.28;0.10;;;;;;;;;;10390502;28;20065;-67
2021/09/22 16:21:35;;;;;;;0.10;0.10;;;;;;;;;;10389287;28;20598;-69
2021/09/22 16:26:39;;;;;;;0.10;0.10;;;;;;;;;;10390394;28;20116;-67
2021/09/22 16:31:48;;;;;;;0.15;0.15;;;;;;;;;;10389579;28;20401;-69
2021/09/22 16:36:51;;;;;;;0.47;0.28;;;;;;;;;;10393773;28;20053;-69
2021/09/22 16:41:54;;;;;;;0.82;0.20;;;;;;;;;;10397077;28;20073;-70
2021/09/22 16:46:58;;;;;;;0.38;0.10;;;;;;;;;;10401854;28;20041;-74
2021/09/22 16:57:47;;;;;;;0.63;0.10;;;;;;;;;;10426649;28;20036;-71
2021/09/22 17:02:51;;;;;;;0.20;0.10;;;;;;;;;;10411274;28;20115;-73
2021/09/22 17:07:57;;;;;;;0.10;0.10;;;;;;;;;;10399856;28;20103;-66
2021/09/22 17:13:03;;;;;;;0.15;0.10;;;;;;;;;;10396389;28;20056;-66
2021/09/22 17:18:07;;;;;;;0.20;0.20;;;;;;;;;;10398473;28;20051;-66
2021/09/22 17:23:10;;;;;;;0.17;0.10;;;;;;;;;;10394690;28;20111;-66
2021/09/22 17:28:13;;;;;;;0.50;0.20;;;;;;;;;;10390890;28;20138;-66
2021/09/22 17:33:17;;;;;;;0.10;0.10;;;;;;;;;;10396805;28;20052;-66
2021/09/22 17:38:20;;;;;;;0.30;0.20;;;;;;;;;;10396490;28;20049;-66
2021/09/22 17:43:23;;;;;;;0.25;0.20;;;;;;;;;;10398075;28;20052;-71
2021/09/22 17:48:27;;;;;;;0.20;0.10;;;;;;;;;;10398651;28;20049;-68
2021/09/22 17:53:30;;;;;;;0.10;0.10;;;;;;;;;;10399341;28;20049;-71
2021/09/22 17:58:33;;;;;;;0.10;0.10;;;;;;;;;;10393543;28;20053;-68
2021/09/22 18:03:37;;;;;;;1.85;0.25;;;;;;;;;;10392970;28;20041;-65
2021/09/22 18:08:41;;;;;;;0.25;0.20;;;;;;;;;;10396545;28;20053;-72
2021/09/22 18:13:43;;;;;;;0.20;0.20;;;;;;;;;;10394812;28;20474;-67
2021/09/22 18:18:52;;;;;;;0.10;0.10;;;;;;;;;;10395671;28;20156;-68
2021/09/22 18:23:55;;;;;;;0.10;0.10;;;;;;;;;;10393333;28;20120;-68
2021/09/22 18:28:57;;;;;;;0.20;0.20;;;;;;;;;;10392115;28;20707;-66
2021/09/22 18:34:02;;;;;;;0.30;0.20;;;;;;;;;;10395047;28;20132;-64
2021/09/22 18:39:05;;;;;;;0.30;0.20;;;;;;;;;;10404666;28;20500;-64
2021/09/22 18:44:08;;;;;;;2.15;0.20;;;;;;;;;;10403040;28;20041;-64
2021/09/22 18:49:13;;;;;;;0.63;0.30;;;;;;;;;;10389722;28;20103;-67
2021/09/22 18:54:17;;;;;;;0.20;0.20;;;;;;;;;;10395773;28;20046;-67
2021/09/22 18:59:21;;;;;;;0.20;0.13;;;;;;;;;;10398713;28;20576;-67
2021/09/22 19:04:25;;;;;;;0.20;0.20;;;;;;;;;;10389881;28;20107;-65
2021/09/22 19:09:28;;;;;;;0.52;0.20;;;;;;;;;;10390001;28;20041;-64
2021/09/22 19:14:31;;;;;;;0.55;0.22;;;;;;;;;;10389764;28;20041;-65
2021/09/22 19:19:36;;;;;;;0.30;0.30;;;;;;;;;;10391558;28;20159;-64
2021/09/22 19:24:39;;;;;;;0.20;0.20;;;;;;;;;;10391280;28;20127;-66
2021/09/22 19:29:43;;;;;;;0.30;0.20;;;;;;;;;;10389093;28;20049;-65
2021/09/22 19:34:47;;;;;;;0.20;0.20;;;;;;;;;;10392882;28;20099;-66
2021/09/22 19:39:50;;;;;;;0.30;0.22;;;;;;;;;;10393479;28;20064;-62
2021/09/22 19:44:53;;;;;;;0.30;0.20;;;;;;;;;;10390486;28;20041;-63
2021/09/22 19:49:58;;;;;;;0.35;0.20;;;;;;;;;;10391481;28;20095;-62
2021/09/22 19:55:00;;;;;;;0.25;0.25;;;;;;;;;;10390698;28;20124;-62
2021/09/22 20:00:04;;;;;;;0.20;0.20;;;;;;;;;;10392452;28;20450;-62
2021/09/22 20:05:10;;;;;;;0.20;0.20;;;;;;;;;;10384558;28;20041;-62
2021/09/22 20:10:14;;;;;;;0.22;0.22;;;;;;;;;;10394209;28;20068;-62
2021/09/22 20:15:22;;;;;;;0.28;0.20;;;;;;;;;;10413534;28;20053;-64
2021/09/22 20:20:27;;;;;;;0.75;0.32;;;;;;;;;;10393525;28;20484;-62
2021/09/22 20:25:31;;;;;;;0.40;0.40;;;;;;;;;;10394453;28;20041;-63
2021/09/22 20:30:37;;;;;;;0.30;0.20;;;;;;;;;;10395036;28;20046;-71
2021/09/22 20:35:44;;;;;;;0.70;0.30;;;;;;;;;;10394531;28;20120;-68
2021/09/22 20:40:47;;;;;;;0.35;0.30;;;;;;;;;;10395122;28;20122;-67
2021/09/22 20:45:51;;;;;;;0.63;0.30;;;;;;;;;;10391857;28;20064;-67
2021/09/22 20:50:55;;;;;;;0.25;0.25;;;;;;;;;;10393456;28;20045;-67
2021/09/22 20:55:59;;;;;;;0.30;0.30;;;;;;;;;;10397412;28;20049;-67
2021/09/22 21:01:03;;;;;;;0.20;0.20;;;;;;;;;;10386441;28;20529;-67
2021/09/22 21:06:09;;;;;;;0.22;0.22;;;;;;;;;;10388119;28;20037;-67
2021/09/22 21:11:13;;;;;;;0.30;0.30;;;;;;;;;;10394638;28;20053;-68
2021/09/22 21:16:16;;;;;;;0.30;0.30;;;;;;;;;;10393004;28;20092;-68
2021/09/22 21:21:21;;;;;;;0.45;0.20;;;;;;;;;;10389732;28;20422;-68
2021/09/22 21:26:24;;;;;;;0.32;0.30;;;;;;;;;;10393132;28;20467;-68
2021/09/22 21:31:27;;;;;;;0.25;0.20;;;;;;;;;;10393531;28;20127;-68
2021/09/22 21:36:31;;;;;;;0.30;0.30;;;;;;;;;;10392485;28;20041;-68
2021/09/22 21:41:34;;;;;;;0.30;0.30;;;;;;;;;;10390556;28;20144;-68
2021/09/22 21:46:37;;;;;;;0.30;0.30;;;;;;;;;;10389947;28;20877;-68
2021/09/22 21:51:41;;;;;;;0.40;0.40;;;;;;;;;;10385798;28;20057;-67
2021/09/22 21:56:46;;;;;;;0.20;0.20;;;;;;;;;;10392725;28;20046;-68
2021/09/22 22:01:50;;;;;;;0.20;0.20;;;;;;;;;;10391911;28;20057;-67
2021/09/22 22:06:54;;;;;;;0.38;0.20;;;;;;;;;;10392468;28;20037;-68
2021/09/22 22:11:57;;;;;;;0.20;0.20;;;;;;;;;;10392167;28;20045;-67
2021/09/22 22:17:00;;;;;;;0.50;0.20;;;;;;;;;;10391913;28;20060;-68
2021/09/22 22:22:05;;;;;;;0.30;0.30;;;;;;;;;;10390999;28;20443;-67
2021/09/22 22:27:08;;;;;;;0.20;0.20;;;;;;;;;;10389806;28;20091;-68
2021/09/22 22:32:11;;;;;;;0.30;0.30;;;;;;;;;;10388929;28;20128;-69
2021/09/22 22:37:19;;;;;;;0.20;0.20;;;;;;;;;;10388138;28;20389;-69
2021/09/22 22:42:22;;;;;;;0.20;0.20;;;;;;;;;;10387530;28;20061;-64
2021/09/22 22:47:25;;;;;;;0.63;0.20;;;;;;;;;;10391896;28;20137;-63
2021/09/22 22:52:30;;;;;;;0.73;0.30;;;;;;;;;;10387868;28;20183;-63
2021/09/22 22:57:33;;;;;;;0.20;0.20;;;;;;;;;;10388968;28;20131;-63
2021/09/22 23:02:36;;;;;;;0.30;0.30;;;;;;;;;;10390360;28;20174;-63
2021/09/22 23:07:41;;;;;;;0.45;0.25;;;;;;;;;;10386578;28;20043;-63
2021/09/22 23:12:44;;;;;;;0.30;0.30;;;;;;;;;;10387656;28;20123;-64
2021/09/22 23:17:52;;;;;;;0.45;0.30;;;;;;;;;;10391128;28;20052;-64
2021/09/22 23:23:11;;;;;;;0.30;0.30;;;;;;;;;;10386751;28;20140;-63
2021/09/22 23:28:15;;;;;;;0.30;0.30;;;;;;;;;;10385419;28;20064;-63
2021/09/22 23:33:18;;;;;;;0.30;0.30;;;;;;;;;;10383065;28;20140;-63
2021/09/22 23:38:24;;;;;;;0.98;0.30;;;;;;;;;;10384048;28;20065;-63
2021/09/22 23:43:27;;;;;;;0.70;0.30;;;;;;;;;;10384388;28;20149;-62
2021/09/22 23:48:30;;;;;;;0.30;0.30;;;;;;;;;;10384756;28;20488;-62
2021/09/22 23:53:34;;;;;;;0.22;0.22;;;;;;;;;;10390171;28;20566;-62
2021/09/22 23:58:37;;;;;;;0.30;0.30;;;;;;;;;;10388517;28;20049;-63
